sensor_id;sensor_type;location;lat;lon;timestamp;temperature;humidity
11925;DHT22;6022;48.768;18.608;2024-02-04T00:00:41;6.80;99.90
11925;DHT22;6022;48.768;18.608;2024-02-04T00:03:10;6.90;99.90
11925;DHT22;6022;48.768;18.608;2024-02-04T00:05:37;7.00;99.90
11925;DHT22;6022;48.768;18.608;2024-02-04T00:08:05;7.00;99.90
11925;DHT22;6022;48.768;18.608;2024-02-04T00:10:34;7.30;99.90
11925;DHT22;6022;48.768;18.608;2024-02-04T00:13:02;6.80;99.90
11925;DHT22;6022;48.768;18.608;2024-02-04T00:15:31;6.80;99.90
11925;DHT22;6022;48.768;18.608;2024-02-04T00:18:01;7.00;99.90
11925;DHT22;6022;48.768;18.608;2024-02-04T00:20:29;7.40;99.90
11925;DHT22;6022;48.768;18.608;2024-02-04T00:23:00;7.40;99.90
11925;DHT22;6022;48.768;18.608;2024-02-04T00:25:28;7.30;99.90
11925;DHT22;6022;48.768;18.608;2024-02-04T00:27:57;7.30;99.90
11925;DHT22;6022;48.768;18.608;2024-02-04T00:30:25;7.30;99.90
11925;DHT22;6022;48.768;18.608;2024-02-04T00:32:54;7.30;99.90
11925;DHT22;6022;48.768;18.608;2024-02-04T00:35:23;7.30;99.90
11925;DHT22;6022;48.768;18.608;2024-02-04T00:37:51;7.30;99.90
11925;DHT22;6022;48.768;18.608;2024-02-04T00:40:19;7.30;99.90
11925;DHT22;6022;48.768;18.608;2024-02-04T00:42:46;7.30;99.90
11925;DHT22;6022;48.768;18.608;2024-02-04T00:45:15;7.30;99.90
11925;DHT22;6022;48.768;18.608;2024-02-04T00:47:43;7.10;99.90
11925;DHT22;6022;48.768;18.608;2024-02-04T00:50:12;7.00;99.90
11925;DHT22;6022;48.768;18.608;2024-02-04T00:52:40;7.20;99.90
11925;DHT22;6022;48.768;18.608;2024-02-04T00:55:09;7.20;99.90
11925;DHT22;6022;48.768;18.608;2024-02-04T00:57:37;7.20;99.90
11925;DHT22;6022;48.768;18.608;2024-02-04T01:00:06;7.30;99.90
11925;DHT22;6022;48.768;18.608;2024-02-04T01:02:39;7.10;99.90
11925;DHT22;6022;48.768;18.608;2024-02-04T01:05:07;7.30;99.90
11925;DHT22;6022;48.768;18.608;2024-02-04T01:07:36;7.20;99.90
11925;DHT22;6022;48.768;18.608;2024-02-04T01:10:06;6.80;99.90
11925;DHT22;6022;48.768;18.608;2024-02-04T01:12:36;7.00;99.90
11925;DHT22;6022;48.768;18.608;2024-02-04T01:15:05;7.00;99.90
11925;DHT22;6022;48.768;18.608;2024-02-04T01:17:34;7.10;99.90
11925;DHT22;6022;48.768;18.608;2024-02-04T01:20:02;7.30;99.90
11925;DHT22;6022;48.768;18.608;2024-02-04T01:22:30;7.20;99.90
11925;DHT22;6022;48.768;18.608;2024-02-04T01:24:59;7.00;99.90
11925;DHT22;6022;48.768;18.608;2024-02-04T01:27:28;6.90;99.90
11925;DHT22;6022;48.768;18.608;2024-02-04T01:29:56;6.90;99.90
11925;DHT22;6022;48.768;18.608;2024-02-04T01:32:24;7.30;99.90
11925;DHT22;6022;48.768;18.608;2024-02-04T01:34:52;7.10;99.90
11925;DHT22;6022;48.768;18.608;2024-02-04T01:37:21;7.10;99.90
11925;DHT22;6022;48.768;18.608;2024-02-04T01:39:49;7.10;99.90
11925;DHT22;6022;48.768;18.608;2024-02-04T01:42:18;7.10;99.90
11925;DHT22;6022;48.768;18.608;2024-02-04T01:44:46;7.10;99.90
11925;DHT22;6022;48.768;18.608;2024-02-04T01:47:14;7.00;99.90
11925;DHT22;6022;48.768;18.608;2024-02-04T01:49:43;7.20;99.90
11925;DHT22;6022;48.768;18.608;2024-02-04T01:52:12;6.80;99.90
11925;DHT22;6022;48.768;18.608;2024-02-04T01:54:42;7.00;99.90
11925;DHT22;6022;48.768;18.608;2024-02-04T01:57:12;7.00;99.90
11925;DHT22;6022;48.768;18.608;2024-02-04T01:59:41;7.20;99.90
11925;DHT22;6022;48.768;18.608;2024-02-04T02:02:09;7.10;99.90
11925;DHT22;6022;48.768;18.608;2024-02-04T02:04:37;7.00;99.90
11925;DHT22;6022;48.768;18.608;2024-02-04T02:07:06;7.10;99.90
11925;DHT22;6022;48.768;18.608;2024-02-04T02:09:38;7.10;99.90
11925;DHT22;6022;48.768;18.608;2024-02-04T02:14:46;7.10;99.90
11925;DHT22;6022;48.768;18.608;2024-02-04T02:17:22;7.10;99.90
11925;DHT22;6022;48.768;18.608;2024-02-04T02:19:59;7.10;99.90
11925;DHT22;6022;48.768;18.608;2024-02-04T02:22:57;7.10;99.90
11925;DHT22;6022;48.768;18.608;2024-02-04T02:25:36;7.10;99.90
11925;DHT22;6022;48.768;18.608;2024-02-04T02:28:07;7.10;99.90
11925;DHT22;6022;48.768;18.608;2024-02-04T02:30:38;7.10;99.90
11925;DHT22;6022;48.768;18.608;2024-02-04T02:33:08;7.10;99.90
11925;DHT22;6022;48.768;18.608;2024-02-04T02:35:37;7.00;99.90
11925;DHT22;6022;48.768;18.608;2024-02-04T02:38:11;7.10;99.90
11925;DHT22;6022;48.768;18.608;2024-02-04T02:40:54;7.10;99.90
11925;DHT22;6022;48.768;18.608;2024-02-04T02:43:29;7.00;99.90
11925;DHT22;6022;48.768;18.608;2024-02-04T02:45:59;7.10;99.90
11925;DHT22;6022;48.768;18.608;2024-02-04T02:48:28;6.90;99.90
11925;DHT22;6022;48.768;18.608;2024-02-04T02:50:58;7.00;99.90
11925;DHT22;6022;48.768;18.608;2024-02-04T02:53:27;7.10;99.90
11925;DHT22;6022;48.768;18.608;2024-02-04T02:55:55;7.00;99.90
11925;DHT22;6022;48.768;18.608;2024-02-04T02:58:25;6.70;99.90
11925;DHT22;6022;48.768;18.608;2024-02-04T03:00:54;6.70;99.90
11925;DHT22;6022;48.768;18.608;2024-02-04T03:03:23;6.90;99.90
11925;DHT22;6022;48.768;18.608;2024-02-04T03:05:51;7.00;99.90
11925;DHT22;6022;48.768;18.608;2024-02-04T03:08:20;6.90;99.90
11925;DHT22;6022;48.768;18.608;2024-02-04T03:10:49;6.90;99.90
11925;DHT22;6022;48.768;18.608;2024-02-04T03:13:17;6.90;99.90
11925;DHT22;6022;48.768;18.608;2024-02-04T03:15:46;7.10;99.90
11925;DHT22;6022;48.768;18.608;2024-02-04T03:18:15;6.80;99.90
11925;DHT22;6022;48.768;18.608;2024-02-04T03:20:43;7.00;99.90
11925;DHT22;6022;48.768;18.608;2024-02-04T03:23:13;7.00;99.90
11925;DHT22;6022;48.768;18.608;2024-02-04T03:25:42;7.00;99.90
11925;DHT22;6022;48.768;18.608;2024-02-04T03:28:10;7.30;99.90
11925;DHT22;6022;48.768;18.608;2024-02-04T03:30:38;6.90;99.90
11925;DHT22;6022;48.768;18.608;2024-02-04T03:33:12;7.00;99.90
11925;DHT22;6022;48.768;18.608;2024-02-04T03:35:41;6.90;99.90
11925;DHT22;6022;48.768;18.608;2024-02-04T03:38:12;6.80;99.90
11925;DHT22;6022;48.768;18.608;2024-02-04T03:40:41;6.80;99.90
11925;DHT22;6022;48.768;18.608;2024-02-04T03:43:10;6.50;99.90
11925;DHT22;6022;48.768;18.608;2024-02-04T03:45:38;6.70;99.90
11925;DHT22;6022;48.768;18.608;2024-02-04T03:48:07;6.80;99.90
11925;DHT22;6022;48.768;18.608;2024-02-04T03:50:38;6.80;99.90
11925;DHT22;6022;48.768;18.608;2024-02-04T03:53:10;6.70;99.90
11925;DHT22;6022;48.768;18.608;2024-02-04T03:55:39;6.50;99.90
11925;DHT22;6022;48.768;18.608;2024-02-04T03:58:07;6.90;99.90
11925;DHT22;6022;48.768;18.608;2024-02-04T04:00:36;6.70;99.90
11925;DHT22;6022;48.768;18.608;2024-02-04T04:03:05;7.00;99.90
11925;DHT22;6022;48.768;18.608;2024-02-04T04:05:33;6.60;99.90
11925;DHT22;6022;48.768;18.608;2024-02-04T04:08:02;6.90;99.90
11925;DHT22;6022;48.768;18.608;2024-02-04T04:10:30;6.70;99.90
11925;DHT22;6022;48.768;18.608;2024-02-04T04:12:59;6.70;99.90
11925;DHT22;6022;48.768;18.608;2024-02-04T04:15:28;7.00;99.90
11925;DHT22;6022;48.768;18.608;2024-02-04T04:17:56;6.70;99.90
11925;DHT22;6022;48.768;18.608;2024-02-04T04:20:26;6.50;99.90
11925;DHT22;6022;48.768;18.608;2024-02-04T04:22:55;6.70;99.90
11925;DHT22;6022;48.768;18.608;2024-02-04T04:25:24;6.70;99.90
11925;DHT22;6022;48.768;18.608;2024-02-04T04:27:54;7.00;99.90
11925;DHT22;6022;48.768;18.608;2024-02-04T04:30:25;6.70;99.90
11925;DHT22;6022;48.768;18.608;2024-02-04T04:32:56;7.00;99.90
11925;DHT22;6022;48.768;18.608;2024-02-04T04:35:26;6.70;99.90
11925;DHT22;6022;48.768;18.608;2024-02-04T04:37:56;6.80;99.90
11925;DHT22;6022;48.768;18.608;2024-02-04T04:40:24;6.90;99.90
11925;DHT22;6022;48.768;18.608;2024-02-04T04:42:53;6.90;99.90
11925;DHT22;6022;48.768;18.608;2024-02-04T04:45:21;6.60;99.90
11925;DHT22;6022;48.768;18.608;2024-02-04T04:47:50;6.90;99.90
11925;DHT22;6022;48.768;18.608;2024-02-04T04:50:20;7.90;99.90
11925;DHT22;6022;48.768;18.608;2024-02-04T04:52:49;6.70;99.90
11925;DHT22;6022;48.768;18.608;2024-02-04T04:55:22;6.40;99.90
11925;DHT22;6022;48.768;18.608;2024-02-04T04:57:52;6.70;99.90
11925;DHT22;6022;48.768;18.608;2024-02-04T05:00:20;6.70;99.90
11925;DHT22;6022;48.768;18.608;2024-02-04T05:02:49;6.80;99.90
11925;DHT22;6022;48.768;18.608;2024-02-04T05:05:19;7.00;99.90
11925;DHT22;6022;48.768;18.608;2024-02-04T05:07:47;6.60;99.90
11925;DHT22;6022;48.768;18.608;2024-02-04T05:10:17;6.70;99.90
11925;DHT22;6022;48.768;18.608;2024-02-04T05:12:47;6.70;99.90
11925;DHT22;6022;48.768;18.608;2024-02-04T05:15:16;6.70;99.90
11925;DHT22;6022;48.768;18.608;2024-02-04T05:17:44;6.40;99.90
11925;DHT22;6022;48.768;18.608;2024-02-04T05:20:13;6.60;99.90
11925;DHT22;6022;48.768;18.608;2024-02-04T05:22:41;6.70;99.90
11925;DHT22;6022;48.768;18.608;2024-02-04T05:25:10;7.00;99.90
11925;DHT22;6022;48.768;18.608;2024-02-04T05:27:40;6.60;99.90
11925;DHT22;6022;48.768;18.608;2024-02-04T05:30:09;6.90;99.90
11925;DHT22;6022;48.768;18.608;2024-02-04T05:32:38;6.40;99.90
11925;DHT22;6022;48.768;18.608;2024-02-04T05:35:10;7.00;99.90
11925;DHT22;6022;48.768;18.608;2024-02-04T05:37:39;6.70;99.90
11925;DHT22;6022;48.768;18.608;2024-02-04T05:40:11;6.60;99.90
11925;DHT22;6022;48.768;18.608;2024-02-04T05:42:41;6.70;99.90
11925;DHT22;6022;48.768;18.608;2024-02-04T05:45:11;6.80;99.90
11925;DHT22;6022;48.768;18.608;2024-02-04T05:47:39;6.70;99.90
11925;DHT22;6022;48.768;18.608;2024-02-04T05:50:08;6.70;99.90
11925;DHT22;6022;48.768;18.608;2024-02-04T05:52:37;6.60;99.90
11925;DHT22;6022;48.768;18.608;2024-02-04T05:55:05;6.90;99.90
11925;DHT22;6022;48.768;18.608;2024-02-04T05:57:34;6.80;99.90
11925;DHT22;6022;48.768;18.608;2024-02-04T06:00:07;6.70;99.90
11925;DHT22;6022;48.768;18.608;2024-02-04T06:02:37;6.60;99.90
11925;DHT22;6022;48.768;18.608;2024-02-04T06:05:14;6.60;99.90
11925;DHT22;6022;48.768;18.608;2024-02-04T06:07:43;6.40;99.90
11925;DHT22;6022;48.768;18.608;2024-02-04T06:10:11;6.50;99.90
11925;DHT22;6022;48.768;18.608;2024-02-04T06:12:39;6.70;99.90
11925;DHT22;6022;48.768;18.608;2024-02-04T06:15:13;6.40;99.90
11925;DHT22;6022;48.768;18.608;2024-02-04T06:17:42;6.20;99.90
11925;DHT22;6022;48.768;18.608;2024-02-04T06:20:11;6.40;99.90
11925;DHT22;6022;48.768;18.608;2024-02-04T06:22:43;6.60;99.90
11925;DHT22;6022;48.768;18.608;2024-02-04T06:25:12;6.70;99.90
11925;DHT22;6022;48.768;18.608;2024-02-04T06:27:40;6.50;99.90
11925;DHT22;6022;48.768;18.608;2024-02-04T06:30:09;6.20;99.90
11925;DHT22;6022;48.768;18.608;2024-02-04T06:32:38;6.70;99.90
11925;DHT22;6022;48.768;18.608;2024-02-04T06:35:08;6.70;99.90
11925;DHT22;6022;48.768;18.608;2024-02-04T06:37:37;6.60;99.90
11925;DHT22;6022;48.768;18.608;2024-02-04T06:40:10;6.60;99.90
11925;DHT22;6022;48.768;18.608;2024-02-04T06:42:42;6.60;99.90
11925;DHT22;6022;48.768;18.608;2024-02-04T06:45:10;6.30;99.90
11925;DHT22;6022;48.768;18.608;2024-02-04T06:47:38;6.60;99.90
11925;DHT22;6022;48.768;18.608;2024-02-04T06:50:07;6.70;99.90
11925;DHT22;6022;48.768;18.608;2024-02-04T06:52:39;6.50;99.90
11925;DHT22;6022;48.768;18.608;2024-02-04T06:55:20;6.50;99.90
11925;DHT22;6022;48.768;18.608;2024-02-04T06:57:48;6.60;99.90
11925;DHT22;6022;48.768;18.608;2024-02-04T07:00:16;6.40;99.90
11925;DHT22;6022;48.768;18.608;2024-02-04T07:02:47;6.80;99.90
11925;DHT22;6022;48.768;18.608;2024-02-04T07:05:21;6.30;99.90
11925;DHT22;6022;48.768;18.608;2024-02-04T07:07:55;6.50;99.90
11925;DHT22;6022;48.768;18.608;2024-02-04T07:10:57;6.50;99.90
11925;DHT22;6022;48.768;18.608;2024-02-04T07:13:27;6.60;99.90
11925;DHT22;6022;48.768;18.608;2024-02-04T07:15:55;6.50;99.90
11925;DHT22;6022;48.768;18.608;2024-02-04T07:18:23;6.40;99.90
11925;DHT22;6022;48.768;18.608;2024-02-04T07:20:51;6.80;99.90
11925;DHT22;6022;48.768;18.608;2024-02-04T07:23:20;6.70;99.90
11925;DHT22;6022;48.768;18.608;2024-02-04T07:25:49;6.90;99.90
11925;DHT22;6022;48.768;18.608;2024-02-04T07:28:18;6.90;99.90
11925;DHT22;6022;48.768;18.608;2024-02-04T07:30:46;6.70;99.90
11925;DHT22;6022;48.768;18.608;2024-02-04T07:33:18;6.50;99.90
11925;DHT22;6022;48.768;18.608;2024-02-04T07:35:51;6.70;99.90
11925;DHT22;6022;48.768;18.608;2024-02-04T07:38:24;7.00;99.90
11925;DHT22;6022;48.768;18.608;2024-02-04T07:40:59;7.20;99.90
11925;DHT22;6022;48.768;18.608;2024-02-04T07:43:30;6.90;99.90
11925;DHT22;6022;48.768;18.608;2024-02-04T07:46:04;6.90;99.90
11925;DHT22;6022;48.768;18.608;2024-02-04T07:48:35;6.90;99.90
11925;DHT22;6022;48.768;18.608;2024-02-04T07:51:30;6.90;99.90
11925;DHT22;6022;48.768;18.608;2024-02-04T07:54:26;6.80;99.90
11925;DHT22;6022;48.768;18.608;2024-02-04T07:56:59;6.70;99.90
11925;DHT22;6022;48.768;18.608;2024-02-04T08:08:55;7.10;99.90
11925;DHT22;6022;48.768;18.608;2024-02-04T08:11:22;7.10;99.90
11925;DHT22;6022;48.768;18.608;2024-02-04T08:13:50;7.00;99.90
11925;DHT22;6022;48.768;18.608;2024-02-04T08:16:24;7.00;99.90
11925;DHT22;6022;48.768;18.608;2024-02-04T08:18:52;6.90;99.90
11925;DHT22;6022;48.768;18.608;2024-02-04T08:21:20;7.00;99.90
11925;DHT22;6022;48.768;18.608;2024-02-04T08:23:50;6.90;99.90
11925;DHT22;6022;48.768;18.608;2024-02-04T08:26:21;6.80;99.90
11925;DHT22;6022;48.768;18.608;2024-02-04T08:28:53;6.70;99.90
11925;DHT22;6022;48.768;18.608;2024-02-04T08:31:25;7.10;99.90
11925;DHT22;6022;48.768;18.608;2024-02-04T08:34:00;7.20;99.90
11925;DHT22;6022;48.768;18.608;2024-02-04T08:36:59;7.10;99.90
11925;DHT22;6022;48.768;18.608;2024-02-04T08:39:38;7.20;99.90
11925;DHT22;6022;48.768;18.608;2024-02-04T08:42:27;7.30;99.90
11925;DHT22;6022;48.768;18.608;2024-02-04T08:45:21;7.10;99.90
11925;DHT22;6022;48.768;18.608;2024-02-04T08:47:52;7.50;99.90
11925;DHT22;6022;48.768;18.608;2024-02-04T08:50:55;7.40;99.90
11925;DHT22;6022;48.768;18.608;2024-02-04T08:53:34;7.40;99.90
11925;DHT22;6022;48.768;18.608;2024-02-04T08:56:13;7.30;99.90
11925;DHT22;6022;48.768;18.608;2024-02-04T08:58:54;7.50;99.90
11925;DHT22;6022;48.768;18.608;2024-02-04T09:01:28;7.40;99.90
11925;DHT22;6022;48.768;18.608;2024-02-04T09:04:44;7.40;99.90
11925;DHT22;6022;48.768;18.608;2024-02-04T09:07:17;7.50;99.90
11925;DHT22;6022;48.768;18.608;2024-02-04T09:09:47;7.60;99.90
11925;DHT22;6022;48.768;18.608;2024-02-04T09:12:15;7.50;99.90
11925;DHT22;6022;48.768;18.608;2024-02-04T09:14:44;7.60;99.90
11925;DHT22;6022;48.768;18.608;2024-02-04T09:17:16;7.70;99.90
11925;DHT22;6022;48.768;18.608;2024-02-04T09:19:44;7.70;99.90
11925;DHT22;6022;48.768;18.608;2024-02-04T09:29:54;7.90;99.90
11925;DHT22;6022;48.768;18.608;2024-02-04T09:37:25;7.90;99.90
11925;DHT22;6022;48.768;18.608;2024-02-04T09:40:27;8.20;99.90
11925;DHT22;6022;48.768;18.608;2024-02-04T09:43:39;8.30;99.90
11925;DHT22;6022;48.768;18.608;2024-02-04T09:50:17;8.90;99.90
11925;DHT22;6022;48.768;18.608;2024-02-04T09:52:49;10.40;99.90
11925;DHT22;6022;48.768;18.608;2024-02-04T09:55:20;10.60;99.90
11925;DHT22;6022;48.768;18.608;2024-02-04T09:57:49;10.40;99.90
11925;DHT22;6022;48.768;18.608;2024-02-04T10:00:19;10.50;99.90
11925;DHT22;6022;48.768;18.608;2024-02-04T10:02:50;10.40;99.90
11925;DHT22;6022;48.768;18.608;2024-02-04T10:05:19;10.10;99.90
11925;DHT22;6022;48.768;18.608;2024-02-04T10:07:47;10.30;99.90
11925;DHT22;6022;48.768;18.608;2024-02-04T10:10:17;10.10;99.90
11925;DHT22;6022;48.768;18.608;2024-02-04T10:12:54;9.80;99.90
11925;DHT22;6022;48.768;18.608;2024-02-04T10:15:37;10.30;99.90
11925;DHT22;6022;48.768;18.608;2024-02-04T10:18:05;10.30;99.90
11925;DHT22;6022;48.768;18.608;2024-02-04T10:20:36;10.60;99.90
11925;DHT22;6022;48.768;18.608;2024-02-04T10:23:20;10.80;99.90
11925;DHT22;6022;48.768;18.608;2024-02-04T10:25:58;10.60;99.90
11925;DHT22;6022;48.768;18.608;2024-02-04T10:28:36;11.00;99.90
11925;DHT22;6022;48.768;18.608;2024-02-04T10:31:17;10.80;99.90
11925;DHT22;6022;48.768;18.608;2024-02-04T10:33:46;10.90;99.90
11925;DHT22;6022;48.768;18.608;2024-02-04T10:36:19;10.70;99.90
11925;DHT22;6022;48.768;18.608;2024-02-04T10:38:49;10.60;99.90
11925;DHT22;6022;48.768;18.608;2024-02-04T10:41:25;10.80;99.90
11925;DHT22;6022;48.768;18.608;2024-02-04T10:44:24;10.50;99.90
11925;DHT22;6022;48.768;18.608;2024-02-04T10:46:56;10.50;99.90
11925;DHT22;6022;48.768;18.608;2024-02-04T10:49:32;10.50;99.90
11925;DHT22;6022;48.768;18.608;2024-02-04T10:52:21;10.30;99.90
11925;DHT22;6022;48.768;18.608;2024-02-04T10:54:51;10.50;99.90
11925;DHT22;6022;48.768;18.608;2024-02-04T10:57:21;10.30;99.90
11925;DHT22;6022;48.768;18.608;2024-02-04T10:59:59;10.30;99.90
11925;DHT22;6022;48.768;18.608;2024-02-04T11:02:32;10.30;99.90
11925;DHT22;6022;48.768;18.608;2024-02-04T11:05:03;10.30;99.90
11925;DHT22;6022;48.768;18.608;2024-02-04T11:07:34;10.20;99.90
11925;DHT22;6022;48.768;18.608;2024-02-04T11:10:03;10.50;99.90
11925;DHT22;6022;48.768;18.608;2024-02-04T11:12:34;10.90;99.90
11925;DHT22;6022;48.768;18.608;2024-02-04T11:15:06;10.60;99.90
11925;DHT22;6022;48.768;18.608;2024-02-04T11:18:05;10.80;99.90
11925;DHT22;6022;48.768;18.608;2024-02-04T11:21:18;10.50;99.90
11925;DHT22;6022;48.768;18.608;2024-02-04T11:26:51;10.50;99.90
11925;DHT22;6022;48.768;18.608;2024-02-04T11:29:21;10.20;99.90
11925;DHT22;6022;48.768;18.608;2024-02-04T11:31:53;10.20;99.90
11925;DHT22;6022;48.768;18.608;2024-02-04T11:34:37;10.20;99.90
11925;DHT22;6022;48.768;18.608;2024-02-04T11:37:18;9.90;99.90
11925;DHT22;6022;48.768;18.608;2024-02-04T11:39:53;10.00;99.90
11925;DHT22;6022;48.768;18.608;2024-02-04T11:42:34;10.00;99.90
11925;DHT22;6022;48.768;18.608;2024-02-04T11:45:10;10.00;99.90
11925;DHT22;6022;48.768;18.608;2024-02-04T11:47:40;9.90;99.90
11925;DHT22;6022;48.768;18.608;2024-02-04T11:50:32;9.90;99.90
11925;DHT22;6022;48.768;18.608;2024-02-04T11:53:25;9.90;99.90
11925;DHT22;6022;48.768;18.608;2024-02-04T11:56:03;9.70;99.90
11925;DHT22;6022;48.768;18.608;2024-02-04T11:58:34;9.70;99.90
11925;DHT22;6022;48.768;18.608;2024-02-04T12:01:09;9.70;99.90
11925;DHT22;6022;48.768;18.608;2024-02-04T12:03:42;9.60;99.90
11925;DHT22;6022;48.768;18.608;2024-02-04T12:06:14;9.70;99.90
11925;DHT22;6022;48.768;18.608;2024-02-04T12:08:45;9.60;99.90
11925;DHT22;6022;48.768;18.608;2024-02-04T12:11:15;9.90;99.90
11925;DHT22;6022;48.768;18.608;2024-02-04T12:13:50;9.80;99.90
11925;DHT22;6022;48.768;18.608;2024-02-04T12:16:25;9.80;99.90
11925;DHT22;6022;48.768;18.608;2024-02-04T12:18:55;9.80;99.90
11925;DHT22;6022;48.768;18.608;2024-02-04T12:21:27;9.70;99.90
11925;DHT22;6022;48.768;18.608;2024-02-04T12:24:05;9.80;99.90
11925;DHT22;6022;48.768;18.608;2024-02-04T12:26:38;9.90;99.90
11925;DHT22;6022;48.768;18.608;2024-02-04T12:29:08;9.60;99.90
11925;DHT22;6022;48.768;18.608;2024-02-04T12:31:47;9.90;99.90
11925;DHT22;6022;48.768;18.608;2024-02-04T12:34:39;10.10;99.90
11925;DHT22;6022;48.768;18.608;2024-02-04T12:37:10;9.80;99.90
11925;DHT22;6022;48.768;18.608;2024-02-04T12:39:39;9.90;99.90
11925;DHT22;6022;48.768;18.608;2024-02-04T12:42:07;10.10;99.90
11925;DHT22;6022;48.768;18.608;2024-02-04T12:44:38;9.70;99.90
11925;DHT22;6022;48.768;18.608;2024-02-04T12:47:06;9.90;99.90
11925;DHT22;6022;48.768;18.608;2024-02-04T12:49:36;10.00;99.90
11925;DHT22;6022;48.768;18.608;2024-02-04T12:52:07;9.70;99.90
11925;DHT22;6022;48.768;18.608;2024-02-04T12:54:41;9.80;99.90
11925;DHT22;6022;48.768;18.608;2024-02-04T12:57:23;9.60;99.90
11925;DHT22;6022;48.768;18.608;2024-02-04T13:00:04;9.80;99.90
11925;DHT22;6022;48.768;18.608;2024-02-04T13:02:38;9.80;99.90
11925;DHT22;6022;48.768;18.608;2024-02-04T13:05:09;10.10;99.90
11925;DHT22;6022;48.768;18.608;2024-02-04T13:07:39;9.60;99.90
11925;DHT22;6022;48.768;18.608;2024-02-04T13:10:18;10.20;99.90
11925;DHT22;6022;48.768;18.608;2024-02-04T13:13:01;9.90;99.90
11925;DHT22;6022;48.768;18.608;2024-02-04T13:15:43;10.00;99.90
11925;DHT22;6022;48.768;18.608;2024-02-04T13:18:17;10.00;99.90
11925;DHT22;6022;48.768;18.608;2024-02-04T13:20:45;9.90;99.90
11925;DHT22;6022;48.768;18.608;2024-02-04T13:23:14;10.10;99.90
11925;DHT22;6022;48.768;18.608;2024-02-04T13:25:43;10.30;99.90
11925;DHT22;6022;48.768;18.608;2024-02-04T13:28:13;10.20;99.90
11925;DHT22;6022;48.768;18.608;2024-02-04T13:30:47;10.00;99.90
11925;DHT22;6022;48.768;18.608;2024-02-04T13:33:15;10.30;99.90
11925;DHT22;6022;48.768;18.608;2024-02-04T13:35:44;10.30;99.90
11925;DHT22;6022;48.768;18.608;2024-02-04T13:38:13;10.30;99.90
11925;DHT22;6022;48.768;18.608;2024-02-04T13:40:42;10.20;99.90
11925;DHT22;6022;48.768;18.608;2024-02-04T13:43:11;10.20;99.90
11925;DHT22;6022;48.768;18.608;2024-02-04T13:45:40;10.20;99.90
11925;DHT22;6022;48.768;18.608;2024-02-04T13:48:09;10.20;99.90
11925;DHT22;6022;48.768;18.608;2024-02-04T13:50:37;10.20;99.90
11925;DHT22;6022;48.768;18.608;2024-02-04T13:53:06;10.20;99.90
11925;DHT22;6022;48.768;18.608;2024-02-04T13:55:35;10.20;99.90
11925;DHT22;6022;48.768;18.608;2024-02-04T13:58:05;10.20;99.90
11925;DHT22;6022;48.768;18.608;2024-02-04T14:00:34;10.20;99.90
11925;DHT22;6022;48.768;18.608;2024-02-04T14:03:03;10.00;99.90
11925;DHT22;6022;48.768;18.608;2024-02-04T14:05:31;10.10;99.90
11925;DHT22;6022;48.768;18.608;2024-02-04T14:07:59;9.80;99.90
11925;DHT22;6022;48.768;18.608;2024-02-04T14:10:27;9.90;99.90
11925;DHT22;6022;48.768;18.608;2024-02-04T14:12:55;10.20;99.90
11925;DHT22;6022;48.768;18.608;2024-02-04T14:15:46;10.30;99.90
11925;DHT22;6022;48.768;18.608;2024-02-04T14:18:17;10.10;99.90
11925;DHT22;6022;48.768;18.608;2024-02-04T14:20:45;10.50;99.90
11925;DHT22;6022;48.768;18.608;2024-02-04T14:23:13;10.20;99.90
11925;DHT22;6022;48.768;18.608;2024-02-04T14:25:45;10.20;99.90
11925;DHT22;6022;48.768;18.608;2024-02-04T14:28:15;10.20;99.90
11925;DHT22;6022;48.768;18.608;2024-02-04T14:30:43;10.20;99.90
11925;DHT22;6022;48.768;18.608;2024-02-04T14:33:14;10.50;99.90
11925;DHT22;6022;48.768;18.608;2024-02-04T14:35:42;10.30;99.90
11925;DHT22;6022;48.768;18.608;2024-02-04T14:38:10;10.20;99.90
11925;DHT22;6022;48.768;18.608;2024-02-04T14:40:38;10.50;99.90
11925;DHT22;6022;48.768;18.608;2024-02-04T14:43:06;10.50;99.90
11925;DHT22;6022;48.768;18.608;2024-02-04T14:45:39;10.50;99.90
11925;DHT22;6022;48.768;18.608;2024-02-04T14:48:07;10.20;99.90
11925;DHT22;6022;48.768;18.608;2024-02-04T14:50:37;10.00;99.90
11925;DHT22;6022;48.768;18.608;2024-02-04T14:53:08;10.20;99.90
11925;DHT22;6022;48.768;18.608;2024-02-04T14:55:45;10.10;99.90
11925;DHT22;6022;48.768;18.608;2024-02-04T14:58:13;10.10;99.90
11925;DHT22;6022;48.768;18.608;2024-02-04T15:00:41;10.10;99.90
11925;DHT22;6022;48.768;18.608;2024-02-04T15:03:10;9.90;99.90
11925;DHT22;6022;48.768;18.608;2024-02-04T15:05:47;10.10;99.90
11925;DHT22;6022;48.768;18.608;2024-02-04T15:08:15;10.30;99.90
11925;DHT22;6022;48.768;18.608;2024-02-04T15:10:44;10.00;99.90
11925;DHT22;6022;48.768;18.608;2024-02-04T15:13:18;10.30;99.90
11925;DHT22;6022;48.768;18.608;2024-02-04T15:15:56;10.10;99.90
11925;DHT22;6022;48.768;18.608;2024-02-04T15:18:33;9.90;99.90
11925;DHT22;6022;48.768;18.608;2024-02-04T15:21:06;10.20;99.90
11925;DHT22;6022;48.768;18.608;2024-02-04T15:23:39;10.10;99.90
11925;DHT22;6022;48.768;18.608;2024-02-04T15:29:23;10.20;99.90
11925;DHT22;6022;48.768;18.608;2024-02-04T15:31:52;10.00;99.90
11925;DHT22;6022;48.768;18.608;2024-02-04T15:34:22;10.00;99.90
11925;DHT22;6022;48.768;18.608;2024-02-04T15:36:50;10.00;99.90
11925;DHT22;6022;48.768;18.608;2024-02-04T15:39:19;10.00;99.90
11925;DHT22;6022;48.768;18.608;2024-02-04T15:41:56;9.70;99.90
11925;DHT22;6022;48.768;18.608;2024-02-04T15:44:24;10.10;99.90
11925;DHT22;6022;48.768;18.608;2024-02-04T15:46:53;10.10;99.90
11925;DHT22;6022;48.768;18.608;2024-02-04T15:49:32;10.10;99.90
11925;DHT22;6022;48.768;18.608;2024-02-04T15:52:03;10.50;99.90
11925;DHT22;6022;48.768;18.608;2024-02-04T15:54:32;10.60;99.90
11925;DHT22;6022;48.768;18.608;2024-02-04T15:57:09;10.50;99.90
11925;DHT22;6022;48.768;18.608;2024-02-04T16:02:19;10.20;99.90
11925;DHT22;6022;48.768;18.608;2024-02-04T16:04:49;10.20;99.90
11925;DHT22;6022;48.768;18.608;2024-02-04T16:07:22;10.10;99.90
11925;DHT22;6022;48.768;18.608;2024-02-04T16:09:59;10.20;99.90
11925;DHT22;6022;48.768;18.608;2024-02-04T16:12:37;10.10;99.90
11925;DHT22;6022;48.768;18.608;2024-02-04T16:15:15;10.10;99.90
11925;DHT22;6022;48.768;18.608;2024-02-04T16:17:54;10.30;99.90
11925;DHT22;6022;48.768;18.608;2024-02-04T16:20:25;10.20;99.90
11925;DHT22;6022;48.768;18.608;2024-02-04T16:22:53;10.10;99.90
11925;DHT22;6022;48.768;18.608;2024-02-04T16:25:22;10.20;99.90
11925;DHT22;6022;48.768;18.608;2024-02-04T16:28:06;10.00;99.90
11925;DHT22;6022;48.768;18.608;2024-02-04T16:30:42;10.10;99.90
11925;DHT22;6022;48.768;18.608;2024-02-04T16:33:20;10.00;99.90
11925;DHT22;6022;48.768;18.608;2024-02-04T16:35:51;10.00;99.90
11925;DHT22;6022;48.768;18.608;2024-02-04T16:38:32;10.00;99.90
11925;DHT22;6022;48.768;18.608;2024-02-04T16:41:02;9.70;99.90
11925;DHT22;6022;48.768;18.608;2024-02-04T16:43:31;10.00;99.90
11925;DHT22;6022;48.768;18.608;2024-02-04T16:46:03;9.90;99.90
11925;DHT22;6022;48.768;18.608;2024-02-04T16:48:48;9.50;99.90
11925;DHT22;6022;48.768;18.608;2024-02-04T16:51:21;9.60;99.90